Time;durP1;ratioP1;P1;durP2;ratioP2;P2;SDS_P1;SDS_P2;PMS_P1;PMS_P2;Temp;Humidity;BMP_temperature;BMP_pressure;BME280_temperature;BME280_humidity;BME280_pressure;Samples;Min_cycle;Max_cycle;Signal;HPM_P1;HPM_P2
2023/05/30 00:02:15;;;;;;;2.58;1.00;;;22.90;36.50;;;;;;5037344;28;20072;-63
2023/05/30 00:04:41;;;;;;;2.35;0.82;;;22.90;36.50;;;;;;5054353;28;20037;-61
2023/05/30 00:07:07;;;;;;;3.70;1.23;;;22.90;36.50;;;;;;5051292;28;20021;-60
2023/05/30 00:09:33;;;;;;;3.08;1.20;;;22.90;36.60;;;;;;5052921;28;20129;-60
2023/05/30 00:12:00;;;;;;;2.50;1.00;;;22.90;36.60;;;;;;5051454;28;20025;-61
2023/05/30 00:14:26;;;;;;;3.40;1.23;;;22.90;36.60;;;;;;5056076;28;20109;-61
2023/05/30 00:16:52;;;;;;;3.42;1.17;;;22.90;36.60;;;;;;5058643;28;20154;-62
2023/05/30 00:19:19;;;;;;;4.05;1.17;;;22.90;36.60;;;;;;5055105;28;20030;-62
2023/05/30 00:21:46;;;;;;;3.50;1.20;;;22.90;36.60;;;;;;5055698;28;20371;-62
2023/05/30 00:24:12;;;;;;;3.97;1.15;;;22.80;36.60;;;;;;5052656;28;20389;-61
2023/05/30 00:26:38;;;;;;;2.88;1.23;;;22.90;36.70;;;;;;5053170;28;20051;-60
2023/05/30 00:29:04;;;;;;;3.40;1.17;;;22.80;36.70;;;;;;5037130;28;20041;-61
2023/05/30 00:31:30;;;;;;;3.17;1.15;;;22.90;36.80;;;;;;5056401;28;20032;-62
2023/05/30 00:33:56;;;;;;;3.20;0.93;;;22.80;37.30;;;;;;5054565;28;20407;-59
2023/05/30 00:36:22;;;;;;;3.42;1.17;;;22.80;36.70;;;;;;5039260;28;20108;-61
2023/05/30 00:38:47;;;;;;;4.55;1.65;;;22.80;36.70;;;;;;5057620;28;20036;-59
2023/05/30 00:41:14;;;;;;;2.15;0.90;;;22.80;36.80;;;;;;5056086;28;20102;-62
2023/05/30 00:43:40;;;;;;;3.00;1.45;;;22.80;36.80;;;;;;5035173;28;20031;-62
2023/05/30 00:46:07;;;;;;;3.42;1.20;;;22.80;36.80;;;;;;5037007;28;20048;-64
2023/05/30 00:48:34;;;;;;;4.00;1.40;;;22.80;36.80;;;;;;5051333;28;20131;-62
2023/05/30 00:51:00;;;;;;;3.42;1.00;;;22.80;36.90;;;;;;5056861;28;20475;-62
2023/05/30 00:53:27;;;;;;;2.70;1.10;;;22.80;36.90;;;;;;5054766;28;20046;-61
2023/05/30 00:55:53;;;;;;;3.60;1.17;;;22.80;36.90;;;;;;5033372;28;20320;-61
2023/05/30 00:58:21;;;;;;;3.42;1.35;;;22.70;36.90;;;;;;5055998;28;20033;-63
2023/05/30 01:00:48;;;;;;;2.90;1.10;;;22.70;36.90;;;;;;5033537;28;20038;-63
2023/05/30 01:03:15;;;;;;;5.07;1.27;;;22.70;36.90;;;;;;5034373;28;20021;-62
2023/05/30 01:05:43;;;;;;;4.53;1.35;;;22.70;37.00;;;;;;5059966;28;20104;-62
2023/05/30 01:08:10;;;;;;;2.95;1.00;;;22.70;37.00;;;;;;5050784;28;20021;-62
2023/05/30 01:10:37;;;;;;;2.38;1.05;;;22.70;37.00;;;;;;5033658;28;20440;-64
2023/05/30 01:13:18;;;;;;;2.22;0.93;;;22.70;37.00;;;;;;5038012;28;20024;-64
2023/05/30 01:15:57;;;;;;;3.70;1.30;;;22.70;37.00;;;;;;5037492;28;20120;-66
2023/05/30 01:18:32;;;;;;;2.47;0.90;;;22.60;37.00;;;;;;5056482;28;20068;-63
2023/05/30 01:21:02;;;;;;;3.22;1.30;;;22.70;37.10;;;;;;5059544;28;20501;-61
2023/05/30 01:23:52;;;;;;;2.40;0.95;;;22.70;37.10;;;;;;5040481;28;20057;-62
2023/05/30 01:26:27;;;;;;;3.22;1.10;;;22.70;37.10;;;;;;5037583;28;20419;-62
2023/05/30 01:28:55;;;;;;;2.55;1.02;;;22.60;37.00;;;;;;5051109;28;20464;-64
2023/05/30 01:31:23;;;;;;;3.25;1.00;;;22.60;37.10;;;;;;5056373;28;20028;-62
2023/05/30 01:33:51;;;;;;;2.63;0.95;;;22.60;37.10;;;;;;5044665;28;20025;-60
2023/05/30 01:36:20;;;;;;;3.63;1.38;;;22.60;37.10;;;;;;5038906;28;20021;-61
2023/05/30 01:38:46;;;;;;;2.70;1.00;;;22.60;37.10;;;;;;5034177;28;20144;-61
2023/05/30 01:41:30;;;;;;;1.88;0.82;;;22.60;37.20;;;;;;5038790;28;20029;-61
2023/05/30 01:44:09;;;;;;;2.90;1.00;;;22.60;37.20;;;;;;5056740;28;20024;-63
2023/05/30 01:46:39;;;;;;;2.65;1.25;;;22.60;37.20;;;;;;5037403;28;20116;-63
2023/05/30 01:49:46;;;;;;;3.28;1.10;;;22.60;37.20;;;;;;5033868;28;20167;-64
2023/05/30 01:52:17;;;;;;;2.80;0.90;;;22.60;37.20;;;;;;5055096;28;20029;-62
2023/05/30 01:54:50;;;;;;;4.35;1.67;;;22.60;37.10;;;;;;5036882;28;20101;-64
2023/05/30 01:57:17;;;;;;;4.18;1.55;;;22.50;37.10;;;;;;5059485;28;20033;-62
2023/05/30 01:59:45;;;;;;;1.95;0.80;;;22.60;37.20;;;;;;5041044;28;20035;-62
2023/05/30 02:02:12;;;;;;;3.88;1.27;;;22.60;37.20;;;;;;5040735;28;20089;-60
2023/05/30 02:04:38;;;;;;;3.33;1.30;;;22.60;37.20;;;;;;5039558;28;20107;-58
2023/05/30 02:07:05;;;;;;;3.35;1.00;;;22.60;37.20;;;;;;5034080;28;20524;-63
2023/05/30 02:09:30;;;;;;;2.33;1.10;;;22.50;37.20;;;;;;5036071;28;20101;-65
2023/05/30 02:11:57;;;;;;;3.67;1.08;;;22.50;37.20;;;;;;5036153;28;20029;-61
2023/05/30 02:14:24;;;;;;;3.25;1.20;;;22.50;37.30;;;;;;5033941;28;20025;-59
2023/05/30 02:16:50;;;;;;;2.38;1.15;;;22.50;37.30;;;;;;5036272;28;20040;-63
2023/05/30 02:19:18;;;;;;;2.53;0.85;;;22.50;37.30;;;;;;5038680;28;20036;-62
2023/05/30 02:21:44;;;;;;;1.73;0.80;;;22.50;37.30;;;;;;5051199;28;20108;-61
2023/05/30 02:24:10;;;;;;;2.45;1.13;;;22.50;37.40;;;;;;5038797;28;20102;-60
2023/05/30 02:26:37;;;;;;;4.25;1.13;;;22.50;37.50;;;;;;5036752;28;20029;-61
2023/05/30 02:29:03;;;;;;;4.63;1.20;;;22.50;37.50;;;;;;5057436;28;20052;-62
2023/05/30 02:31:29;;;;;;;2.88;1.02;;;22.50;37.50;;;;;;5051019;28;20020;-62
2023/05/30 02:33:55;;;;;;;4.72;1.02;;;22.50;37.50;;;;;;5056335;28;20152;-60
2023/05/30 02:36:21;;;;;;;2.28;1.08;;;22.40;37.50;;;;;;5056139;28;20422;-61
2023/05/30 02:38:48;;;;;;;2.30;1.08;;;22.40;37.50;;;;;;5058563;28;20093;-61
2023/05/30 02:41:13;;;;;;;3.55;1.10;;;22.40;37.50;;;;;;5040630;28;20630;-63
2023/05/30 02:43:40;;;;;;;3.45;1.20;;;22.40;37.60;;;;;;5041473;28;20021;-60
2023/05/30 02:46:07;;;;;;;2.75;1.00;;;22.40;37.60;;;;;;5037016;28;20356;-62
2023/05/30 02:48:36;;;;;;;2.45;1.00;;;22.40;37.60;;;;;;5038879;28;20044;-61
2023/05/30 02:51:02;;;;;;;2.38;1.13;;;22.40;37.60;;;;;;5037899;28;20051;-63
2023/05/30 02:53:28;;;;;;;3.65;1.10;;;22.40;37.70;;;;;;5033811;28;20128;-61
2023/05/30 02:55:56;;;;;;;2.00;1.00;;;22.40;37.70;;;;;;5036545;28;20043;-62
2023/05/30 02:58:41;;;;;;;3.08;1.02;;;22.40;37.70;;;;;;5041997;28;20484;-61
2023/05/30 03:01:26;;;;;;;3.03;1.00;;;22.40;37.70;;;;;;5034659;28;20438;-62
2023/05/30 03:03:52;;;;;;;3.85;0.98;;;22.40;37.70;;;;;;5036605;28;20066;-60
2023/05/30 03:06:27;;;;;;;3.45;1.17;;;22.40;37.80;;;;;;5034923;28;20098;-65
2023/05/30 03:09:06;;;;;;;2.28;0.90;;;22.40;37.80;;;;;;5037354;28;20040;-60
2023/05/30 03:11:33;;;;;;;2.35;1.15;;;22.40;37.80;;;;;;5032127;28;20094;-60
2023/05/30 03:13:59;;;;;;;3.53;1.25;;;22.30;37.80;;;;;;5033940;28;20094;-60
2023/05/30 03:16:26;;;;;;;3.33;1.23;;;22.40;37.90;;;;;;5044810;28;20466;-59
2023/05/30 03:18:54;;;;;;;2.65;0.93;;;22.30;37.90;;;;;;5039576;28;20185;-61
2023/05/30 03:21:21;;;;;;;1.63;0.75;;;22.30;37.90;;;;;;5040195;28;20029;-63
2023/05/30 03:23:49;;;;;;;2.88;1.25;;;22.30;37.90;;;;;;5035239;28;20178;-63
2023/05/30 03:26:15;;;;;;;2.60;0.93;;;22.30;37.90;;;;;;5038479;28;20032;-63
2023/05/30 03:28:42;;;;;;;2.83;1.00;;;22.30;38.00;;;;;;5035585;28;20320;-64
2023/05/30 03:31:16;;;;;;;2.50;1.00;;;22.30;38.00;;;;;;5037289;28;20068;-61
2023/05/30 03:33:42;;;;;;;2.47;1.17;;;22.30;38.00;;;;;;5034758;28;20066;-62
2023/05/30 03:36:10;;;;;;;3.47;1.38;;;22.30;38.00;;;;;;5037548;28;20163;-60
2023/05/30 03:38:37;;;;;;;3.45;1.40;;;22.30;38.00;;;;;;5037886;28;20032;-60
2023/05/30 03:41:04;;;;;;;3.15;1.13;;;22.30;38.10;;;;;;5038280;28;20069;-60
2023/05/30 03:43:30;;;;;;;3.67;1.25;;;22.30;38.10;;;;;;5034509;28;20025;-60
2023/05/30 03:45:56;;;;;;;2.70;1.10;;;22.30;38.10;;;;;;5035680;28;20132;-60
2023/05/30 03:48:23;;;;;;;4.20;1.38;;;22.30;38.10;;;;;;5034988;28;20119;-61
2023/05/30 03:50:48;;;;;;;2.47;1.20;;;22.30;38.10;;;;;;5058104;28;20536;-63
2023/05/30 03:53:16;;;;;;;5.15;1.20;;;22.30;38.20;;;;;;5054939;28;20069;-60
2023/05/30 03:55:42;;;;;;;3.13;1.05;;;22.30;38.20;;;;;;5039986;28;20439;-62
2023/05/30 03:58:08;;;;;;;4.78;1.17;;;22.30;38.20;;;;;;5033167;28;20090;-60
2023/05/30 04:00:33;;;;;;;2.15;1.00;;;22.30;38.30;;;;;;5039933;28;20075;-60
2023/05/30 04:03:00;;;;;;;1.88;0.95;;;22.30;38.30;;;;;;5052052;28;20301;-63
2023/05/30 04:05:26;;;;;;;2.40;0.82;;;22.30;38.30;;;;;;5036771;28;20043;-65
2023/05/30 04:07:53;;;;;;;2.45;0.90;;;22.30;38.30;;;;;;5032876;28;20127;-61
2023/05/30 04:10:19;;;;;;;1.95;0.98;;;22.20;38.20;;;;;;5052754;28;20132;-62
2023/05/30 04:12:44;;;;;;;2.60;1.00;;;22.30;38.30;;;;;;5038268;28;20404;-62
2023/05/30 04:15:11;;;;;;;3.67;1.30;;;22.20;38.20;;;;;;5032904;28;20681;-60
2023/05/30 04:17:37;;;;;;;2.33;1.05;;;22.20;38.20;;;;;;5032188;28;20091;-61
2023/05/30 04:20:08;;;;;;;3.20;1.35;;;22.20;38.20;;;;;;5021769;28;20020;-60
2023/05/30 04:22:36;;;;;;;4.47;1.17;;;22.20;38.20;;;;;;5035737;28;20107;-62
2023/05/30 04:25:02;;;;;;;1.52;0.73;;;22.20;38.20;;;;;;5033863;28;20100;-64
2023/05/30 04:27:28;;;;;;;2.13;1.20;;;22.20;38.20;;;;;;5052998;28;20025;-65
2023/05/30 04:29:53;;;;;;;2.50;0.88;;;22.20;38.20;;;;;;5037674;28;20376;-59
2023/05/30 04:32:21;;;;;;;2.83;1.00;;;22.20;38.20;;;;;;5033257;28;20033;-62
2023/05/30 04:34:47;;;;;;;3.10;1.10;;;22.20;38.20;;;;;;5050893;28;20040;-60
2023/05/30 04:37:17;;;;;;;3.13;1.27;;;22.20;38.20;;;;;;5038250;28;20074;-61
2023/05/30 04:39:44;;;;;;;3.08;1.10;;;22.20;38.20;;;;;;5036706;28;20104;-61
2023/05/30 04:42:10;;;;;;;7.50;1.55;;;22.20;38.20;;;;;;5036985;28;20119;-61
2023/05/30 04:44:39;;;;;;;2.80;1.23;;;22.20;38.20;;;;;;5032375;28;20124;-66
2023/05/30 04:47:10;;;;;;;2.30;1.10;;;22.20;38.20;;;;;;5043212;28;20049;-65
2023/05/30 04:49:41;;;;;;;2.53;1.20;;;22.20;38.30;;;;;;5041891;28;20104;-61
2023/05/30 04:52:07;;;;;;;4.07;1.10;;;22.20;38.30;;;;;;5056046;28;20020;-62
2023/05/30 04:54:34;;;;;;;2.33;1.13;;;22.20;38.30;;;;;;5056762;28;20037;-63
2023/05/30 04:57:02;;;;;;;2.75;1.10;;;22.20;38.30;;;;;;5019144;28;20039;-62
2023/05/30 04:59:28;;;;;;;2.33;0.95;;;22.20;38.30;;;;;;5055898;28;20098;-62
2023/05/30 05:01:54;;;;;;;3.17;1.27;;;22.20;38.20;;;;;;5041686;28;20045;-62
2023/05/30 05:04:19;;;;;;;2.53;1.10;;;22.20;38.20;;;;;;5061062;28;20187;-63
2023/05/30 05:06:45;;;;;;;4.05;1.30;;;22.20;38.20;;;;;;5056615;28;20060;-59
2023/05/30 05:09:11;;;;;;;2.83;1.23;;;22.20;38.20;;;;;;5059302;28;20132;-62
2023/05/30 05:11:37;;;;;;;2.75;1.17;;;22.20;38.20;;;;;;5041454;28;20036;-62
2023/05/30 05:14:03;;;;;;;2.53;0.90;;;22.20;38.20;;;;;;5059321;28;20427;-61
2023/05/30 05:16:29;;;;;;;3.08;1.00;;;22.20;38.20;;;;;;5057054;28;20056;-63
2023/05/30 05:18:55;;;;;;;3.15;1.20;;;22.20;38.20;;;;;;5057368;28;20048;-61
2023/05/30 05:21:20;;;;;;;3.13;1.20;;;22.20;38.20;;;;;;5058418;28;20119;-63
2023/05/30 05:23:46;;;;;;;0.98;0.70;;;22.20;38.20;;;;;;5058908;28;20157;-60
2023/05/30 05:26:12;;;;;;;2.95;1.23;;;22.20;38.20;;;;;;5059540;28;20033;-62
2023/05/30 05:28:38;;;;;;;3.28;1.40;;;22.20;38.20;;;;;;5056484;28;20043;-65
2023/05/30 05:31:04;;;;;;;2.40;0.93;;;22.20;38.20;;;;;;5062317;28;20044;-61
2023/05/30 05:33:30;;;;;;;2.38;0.98;;;22.20;38.20;;;;;;5059815;28;20021;-64
2023/05/30 05:35:56;;;;;;;2.20;0.90;;;22.20;38.20;;;;;;5034780;28;20032;-62
2023/05/30 05:38:21;;;;;;;3.05;1.23;;;22.20;38.20;;;;;;5057420;28;20029;-63
2023/05/30 05:40:47;;;;;;;2.72;1.30;;;22.20;38.20;;;;;;5058404;28;20029;-61
2023/05/30 05:43:13;;;;;;;1.63;0.80;;;22.20;38.20;;;;;;5056830;28;20056;-64
2023/05/30 05:45:39;;;;;;;2.55;1.10;;;22.20;38.20;;;;;;5057404;28;20393;-63
2023/05/30 05:48:05;;;;;;;3.22;1.25;;;22.20;38.20;;;;;;5058139;28;20094;-64
2023/05/30 05:50:31;;;;;;;2.67;1.50;;;22.20;38.10;;;;;;5054566;28;20056;-61
2023/05/30 05:52:57;;;;;;;2.42;1.20;;;22.20;38.10;;;;;;5055024;28;20025;-61
2023/05/30 05:55:22;;;;;;;2.33;0.90;;;22.20;38.10;;;;;;5058265;28;20029;-62
2023/05/30 05:57:48;;;;;;;2.15;1.13;;;22.20;38.10;;;;;;5054252;28;20024;-60
2023/05/30 06:00:15;;;;;;;2.95;1.15;;;22.20;38.10;;;;;;5053532;28;20094;-61
2023/05/30 06:02:41;;;;;;;1.88;0.90;;;22.20;38.10;;;;;;5055281;28;20029;-61
2023/05/30 06:05:07;;;;;;;2.42;1.13;;;22.20;38.10;;;;;;5060455;28;20075;-61
2023/05/30 06:07:34;;;;;;;2.22;1.08;;;22.20;38.10;;;;;;5054318;28;20030;-60
2023/05/30 06:10:00;;;;;;;3.05;1.20;;;22.20;38.10;;;;;;5057351;28;20068;-61
2023/05/30 06:12:26;;;;;;;3.00;1.30;;;22.20;38.10;;;;;;5059648;28;20067;-57
2023/05/30 06:14:52;;;;;;;2.72;1.25;;;22.20;38.10;;;;;;5054785;28;20044;-61
2023/05/30 06:17:18;;;;;;;4.07;1.30;;;22.20;38.10;;;;;;5035920;28;20020;-60
2023/05/30 06:19:44;;;;;;;2.65;1.10;;;22.20;38.10;;;;;;5058708;28;20056;-62
2023/05/30 06:22:10;;;;;;;4.30;1.55;;;22.20;38.10;;;;;;5060537;28;20029;-63
2023/05/30 06:24:37;;;;;;;2.40;0.95;;;22.30;38.80;;;;;;5055761;28;20044;-63
2023/05/30 06:27:03;;;;;;;2.70;1.10;;;22.30;38.10;;;;;;5061407;28;20099;-63
2023/05/30 06:29:29;;;;;;;3.13;1.05;;;22.30;38.10;;;;;;5057292;28;20049;-61
2023/05/30 06:31:55;;;;;;;2.30;1.08;;;22.30;38.10;;;;;;5035679;28;20029;-61
2023/05/30 06:34:21;;;;;;;3.35;1.23;;;22.30;38.10;;;;;;5057959;28;20016;-64
2023/05/30 06:36:47;;;;;;;3.47;1.40;;;22.30;38.10;;;;;;5053609;28;20039;-63
2023/05/30 06:39:15;;;;;;;6.82;1.70;;;22.30;38.10;;;;;;5053948;28;20043;-63
2023/05/30 06:41:43;;;;;;;4.65;1.67;;;22.30;38.20;;;;;;5061394;28;20028;-62
2023/05/30 06:44:09;;;;;;;3.70;1.73;;;22.30;38.10;;;;;;5059849;28;20171;-61
2023/05/30 06:46:36;;;;;;;4.90;1.92;;;22.30;38.10;;;;;;5057841;28;20029;-63
2023/05/30 06:49:08;;;;;;;6.13;1.60;;;22.30;38.10;;;;;;5061089;28;20081;-61
2023/05/30 06:51:36;;;;;;;5.38;1.70;;;22.30;38.10;;;;;;5060911;28;20025;-63
2023/05/30 06:54:03;;;;;;;4.93;2.17;;;22.30;38.10;;;;;;5030956;28;20128;-61
2023/05/30 06:56:29;;;;;;;6.57;2.08;;;22.30;38.10;;;;;;5039788;28;20024;-62
2023/05/30 06:58:59;;;;;;;6.93;1.92;;;22.30;38.10;;;;;;5052945;28;20108;-59
2023/05/30 07:01:33;;;;;;;5.55;1.55;;;22.40;38.10;;;;;;5058415;28;20040;-62
2023/05/30 07:04:02;;;;;;;4.22;1.40;;;22.30;38.10;;;;;;5055688;28;20413;-63
2023/05/30 07:06:33;;;;;;;4.25;1.60;;;22.40;38.10;;;;;;5053740;28;20075;-60
2023/05/30 07:09:09;;;;;;;3.53;1.75;;;22.30;38.10;;;;;;5065475;28;20086;-61
2023/05/30 07:11:38;;;;;;;7.40;2.00;;;22.40;38.10;;;;;;5061592;28;20029;-61
2023/05/30 07:14:08;;;;;;;4.65;1.92;;;22.40;38.20;;;;;;5039403;28;20033;-60
2023/05/30 07:16:38;;;;;;;4.53;1.60;;;22.40;38.20;;;;;;5033251;28;20385;-60
2023/05/30 07:19:08;;;;;;;4.22;1.63;;;22.40;38.20;;;;;;5051520;28;20079;-64
2023/05/30 07:21:41;;;;;;;4.82;1.77;;;22.40;38.10;;;;;;5050647;28;20033;-60
2023/05/30 07:24:11;;;;;;;5.35;1.70;;;22.40;38.00;;;;;;5051096;28;20025;-59
2023/05/30 07:26:43;;;;;;;2.83;1.20;;;22.40;37.90;;;;;;5051649;28;20301;-61
2023/05/30 07:29:25;;;;;;;5.90;1.60;;;22.40;37.90;;;;;;5059250;28;20032;-61
2023/05/30 07:31:53;;;;;;;5.35;1.65;;;22.40;37.80;;;;;;5062245;28;20428;-59
2023/05/30 07:34:26;;;;;;;4.18;1.83;;;22.40;37.90;;;;;;5054484;28;20055;-59
2023/05/30 07:36:59;;;;;;;3.45;1.50;;;22.40;38.10;;;;;;5070500;28;20119;-58
2023/05/30 07:39:28;;;;;;;3.97;1.60;;;22.40;38.10;;;;;;5063503;28;20089;-58
2023/05/30 07:42:00;;;;;;;4.72;2.17;;;22.50;38.20;;;;;;5051125;28;20085;-61
2023/05/30 07:44:29;;;;;;;4.10;1.67;;;22.50;38.20;;;;;;5039982;28;20037;-63
2023/05/30 07:47:05;;;;;;;3.83;1.45;;;22.50;38.10;;;;;;5050794;28;20145;-64
2023/05/30 07:49:46;;;;;;;3.42;1.33;;;22.50;38.10;;;;;;5050465;28;20102;-62
2023/05/30 07:52:22;;;;;;;3.05;1.48;;;22.50;38.00;;;;;;5038388;28;20032;-61
2023/05/30 07:54:55;;;;;;;3.90;1.55;;;22.50;37.90;;;;;;5041863;28;20087;-61
2023/05/30 07:57:25;;;;;;;4.35;1.85;;;22.60;37.80;;;;;;5030574;28;20060;-61
2023/05/30 07:59:52;;;;;;;3.40;1.35;;;22.50;37.70;;;;;;5034724;28;20025;-61
2023/05/30 08:02:20;;;;;;;3.10;1.48;;;22.50;37.60;;;;;;5035966;28;20033;-61
2023/05/30 08:04:47;;;;;;;3.53;1.38;;;22.50;37.60;;;;;;5032122;28;20029;-60
2023/05/30 08:07:13;;;;;;;3.70;1.65;;;22.60;37.70;;;;;;5034551;28;20390;-59
2023/05/30 08:09:39;;;;;;;3.75;1.70;;;22.60;37.70;;;;;;5030585;28;20678;-59
2023/05/30 08:12:06;;;;;;;2.50;1.35;;;22.60;37.70;;;;;;5032302;28;20033;-60
2023/05/30 08:14:32;;;;;;;3.45;1.50;;;22.60;37.70;;;;;;5041723;28;20116;-61
2023/05/30 08:16:58;;;;;;;3.75;1.27;;;22.60;37.70;;;;;;5027680;28;20086;-59
2023/05/30 08:19:24;;;;;;;5.20;1.75;;;22.60;37.60;;;;;;5035257;28;20105;-61
2023/05/30 08:21:49;;;;;;;1.75;1.10;;;22.60;37.60;;;;;;5038802;28;20097;-60
2023/05/30 08:24:16;;;;;;;3.55;1.63;;;22.60;37.60;;;;;;5038956;28;20460;-59
2023/05/30 08:26:41;;;;;;;3.05;1.42;;;22.60;37.50;;;;;;5034876;28;20416;-61
2023/05/30 08:29:07;;;;;;;2.25;1.20;;;22.70;37.50;;;;;;5049926;28;20036;-61
2023/05/30 08:31:33;;;;;;;2.85;1.42;;;22.60;37.40;;;;;;5040262;28;20305;-62
2023/05/30 08:34:02;;;;;;;2.97;1.58;;;22.70;37.50;;;;;;5049527;28;20026;-64
2023/05/30 08:36:29;;;;;;;2.33;1.25;;;22.70;37.60;;;;;;5039696;28;20030;-62
2023/05/30 08:38:55;;;;;;;3.60;1.75;;;22.70;37.70;;;;;;5045157;28;20028;-63
2023/05/30 08:41:22;;;;;;;4.03;1.95;;;22.70;37.70;;;;;;5038863;28;20045;-63
2023/05/30 08:43:49;;;;;;;3.45;1.40;;;22.70;37.60;;;;;;5040154;28;20027;-65
2023/05/30 08:46:16;;;;;;;2.47;1.30;;;22.70;37.50;;;;;;5020295;28;20089;-61
2023/05/30 08:48:44;;;;;;;4.15;1.67;;;22.70;37.50;;;;;;5023215;28;20060;-65
2023/05/30 08:51:15;;;;;;;2.05;1.10;;;22.70;37.40;;;;;;5021483;28;20130;-65
2023/05/30 08:53:51;;;;;;;5.68;1.85;;;22.70;37.30;;;;;;5018726;28;20041;-63
2023/05/30 08:56:37;;;;;;;4.10;1.63;;;22.70;37.20;;;;;;5019729;28;20117;-62
2023/05/30 08:59:08;;;;;;;3.70;1.60;;;22.70;37.20;;;;;;5020324;28;20028;-61
2023/05/30 09:01:35;;;;;;;3.65;1.73;;;22.70;37.20;;;;;;5019906;28;20353;-61
2023/05/30 09:04:03;;;;;;;3.55;1.60;;;22.70;37.10;;;;;;5015875;28;20066;-64
2023/05/30 09:06:31;;;;;;;3.05;1.88;;;22.70;37.10;;;;;;5019399;28;20104;-62
2023/05/30 09:08:57;;;;;;;3.72;1.55;;;22.70;37.10;;;;;;5017949;28;20449;-63
2023/05/30 09:11:23;;;;;;;2.65;1.50;;;22.70;37.00;;;;;;5021932;28;20037;-63
2023/05/30 09:13:49;;;;;;;4.70;1.40;;;22.70;37.00;;;;;;5021632;28;20036;-63
2023/05/30 09:16:15;;;;;;;4.32;1.67;;;22.70;37.00;;;;;;5020192;28;20030;-62
2023/05/30 09:18:41;;;;;;;3.08;1.58;;;22.70;36.90;;;;;;5020393;28;20136;-63
2023/05/30 09:21:07;;;;;;;3.70;1.40;;;22.80;37.00;;;;;;5023955;28;20044;-60
2023/05/30 09:23:34;;;;;;;3.00;1.60;;;22.70;36.90;;;;;;5021191;28;20473;-62
2023/05/30 09:26:00;;;;;;;3.72;1.67;;;22.70;36.90;;;;;;5021206;28;20100;-63
2023/05/30 09:28:27;;;;;;;3.45;1.50;;;22.80;36.90;;;;;;5017352;28;20140;-65
2023/05/30 09:31:01;;;;;;;3.17;1.50;;;22.80;36.90;;;;;;5014741;28;20081;-64
2023/05/30 09:33:53;;;;;;;4.15;1.67;;;22.70;36.80;;;;;;5014963;28;20048;-62
2023/05/30 09:36:24;;;;;;;2.85;1.60;;;22.80;37.00;;;;;;5008761;28;20054;-62
2023/05/30 09:39:05;;;;;;;5.28;1.50;;;22.80;37.10;;;;;;5016585;28;20031;-64
2023/05/30 09:41:32;;;;;;;3.63;1.70;;;22.80;37.20;;;;;;5014672;28;20109;-64
2023/05/30 09:43:59;;;;;;;4.97;1.50;;;22.80;37.30;;;;;;5015147;28;20113;-62
2023/05/30 09:46:29;;;;;;;3.08;1.70;;;22.80;37.40;;;;;;5059842;28;20052;-64
2023/05/30 09:48:56;;;;;;;3.15;1.60;;;22.80;37.40;;;;;;5058530;28;20063;-63
2023/05/30 09:51:27;;;;;;;2.75;1.60;;;22.80;37.40;;;;;;5058230;28;20555;-63
2023/05/30 09:54:03;;;;;;;3.28;1.50;;;22.80;37.50;;;;;;5053056;28;20071;-63
2023/05/30 09:56:35;;;;;;;3.38;1.70;;;22.90;37.50;;;;;;5054523;28;20078;-62
2023/05/30 09:59:08;;;;;;;3.10;1.50;;;22.80;37.30;;;;;;5060645;28;20091;-62
2023/05/30 10:01:39;;;;;;;5.20;1.65;;;22.80;37.30;;;;;;5059112;28;20033;-63
2023/05/30 10:04:15;;;;;;;4.38;1.80;;;22.90;37.40;;;;;;5051266;28;20051;-63
2023/05/30 10:06:43;;;;;;;3.08;1.60;;;22.90;37.40;;;;;;5052053;28;20096;-62
2023/05/30 10:09:11;;;;;;;3.25;1.65;;;22.90;37.50;;;;;;5056368;28;20068;-61
2023/05/30 10:11:38;;;;;;;4.03;1.60;;;22.90;37.40;;;;;;5060235;28;20040;-64
2023/05/30 10:14:06;;;;;;;2.92;1.67;;;22.90;37.40;;;;;;5057539;28;20033;-62
2023/05/30 10:16:35;;;;;;;3.55;1.90;;;22.90;37.40;;;;;;5051358;28;20066;-63
2023/05/30 10:19:04;;;;;;;3.78;1.70;;;22.90;37.40;;;;;;5051430;28;20523;-64
2023/05/30 10:21:32;;;;;;;4.25;1.80;;;22.90;37.30;;;;;;5054834;28;20071;-66
2023/05/30 10:24:01;;;;;;;3.95;1.65;;;22.90;37.30;;;;;;5059675;28;20021;-63
2023/05/30 10:26:37;;;;;;;2.40;1.20;;;22.90;37.20;;;;;;5057896;28;20025;-62
2023/05/30 10:29:06;;;;;;;6.68;1.80;;;22.90;37.20;;;;;;5059350;28;20118;-56
2023/05/30 10:31:34;;;;;;;6.47;1.45;;;22.90;37.20;;;;;;5061108;28;20033;-63
2023/05/30 10:34:04;;;;;;;4.70;1.45;;;22.90;37.10;;;;;;5060680;28;20046;-61
2023/05/30 10:36:32;;;;;;;3.40;1.48;;;22.90;37.10;;;;;;5059506;28;20389;-63
2023/05/30 10:39:30;;;;;;;3.35;1.77;;;22.90;37.10;;;;;;5061640;28;20040;-62
2023/05/30 10:42:01;;;;;;;3.08;1.70;;;23.00;37.20;;;;;;5053289;28;20040;-62
2023/05/30 10:44:46;;;;;;;3.92;1.40;;;23.00;37.30;;;;;;5026463;28;20456;-64
2023/05/30 10:47:20;;;;;;;4.20;1.50;;;23.00;37.40;;;;;;5027661;28;20041;-64
2023/05/30 10:49:49;;;;;;;3.28;1.65;;;23.00;37.50;;;;;;5027067;28;20052;-67
2023/05/30 10:52:17;;;;;;;2.55;1.30;;;23.00;37.50;;;;;;5032204;28;20048;-61
2023/05/30 10:54:46;;;;;;;2.90;1.63;;;23.00;37.50;;;;;;5031011;28;20106;-69
2023/05/30 10:57:26;;;;;;;7.63;1.55;;;23.10;37.60;;;;;;5032067;28;20112;-66
2023/05/30 10:59:59;;;;;;;2.22;1.40;;;23.10;37.60;;;;;;5032003;28;20029;-68
2023/05/30 11:02:53;;;;;;;2.60;1.10;;;23.20;37.60;;;;;;5038046;28;20033;-65
2023/05/30 11:05:27;;;;;;;2.47;1.20;;;23.20;37.50;;;;;;5026457;28;20033;-67
2023/05/30 11:07:53;;;;;;;;;;;23.30;37.40;;;;;;5044040;28;20033;-68
2023/05/30 11:10:27;;;;;;;2.55;1.25;;;23.40;37.30;;;;;;5039749;28;20037;-67
2023/05/30 11:13:14;;;;;;;5.30;1.48;;;23.50;37.20;;;;;;5036396;28;20017;-65
2023/05/30 11:15:48;;;;;;;2.80;1.13;;;23.60;37.10;;;;;;5042770;28;20021;-64
2023/05/30 11:18:18;;;;;;;1.50;1.05;;;23.70;37.00;;;;;;5039938;28;20029;-64
2023/05/30 11:20:54;;;;;;;3.00;1.45;;;23.80;36.90;;;;;;5031956;28;20033;-65
2023/05/30 11:23:23;;;;;;;2.33;1.15;;;24.00;36.80;;;;;;5031611;28;20487;-63
2023/05/30 11:25:53;;;;;;;6.28;1.50;;;24.00;36.70;;;;;;5031235;28;20506;-68
2023/05/30 11:28:35;;;;;;;3.15;1.40;;;24.10;36.50;;;;;;5034757;28;20144;-65
2023/05/30 11:31:16;;;;;;;2.70;1.27;;;24.20;36.40;;;;;;5037948;28;20033;-63
2023/05/30 11:33:46;;;;;;;3.10;1.15;;;24.30;36.30;;;;;;5036961;28;20025;-65
2023/05/30 11:36:12;;;;;;;3.25;1.30;;;24.30;36.20;;;;;;5036612;28;20025;-65
2023/05/30 11:38:46;;;;;;;2.40;1.17;;;24.40;36.10;;;;;;5026812;28;20033;-67
2023/05/30 11:41:16;;;;;;;;;;;24.50;36.00;;;;;;5040416;28;20112;-64
2023/05/30 11:43:43;;;;;;;5.20;1.92;;;24.60;35.90;;;;;;5029917;28;19909;-63
2023/05/30 11:46:09;;;;;;;3.50;1.50;;;24.60;35.80;;;;;;5049116;28;20041;-64
2023/05/30 11:48:35;;;;;;;4.70;1.67;;;24.70;35.70;;;;;;5033960;28;20116;-65
2023/05/30 11:51:01;;;;;;;3.47;1.52;;;24.70;35.60;;;;;;5070996;28;20127;-66
2023/05/30 11:53:27;;;;;;;3.47;1.67;;;24.80;35.60;;;;;;5070868;28;20177;-65
2023/05/30 11:55:56;;;;;;;5.50;1.85;;;24.90;35.60;;;;;;5065567;28;20029;-65
2023/05/30 11:58:22;;;;;;;3.83;1.40;;;24.90;35.50;;;;;;5039330;28;20068;-65
2023/05/30 12:00:48;;;;;;;7.38;1.73;;;25.00;35.50;;;;;;5057826;28;20572;-65
2023/05/30 12:03:18;;;;;;;6.43;2.10;;;25.00;35.30;;;;;;5059928;28;20036;-61
2023/05/30 12:05:45;;;;;;;6.88;1.80;;;25.10;35.30;;;;;;5057507;28;20020;-63
2023/05/30 12:08:13;;;;;;;4.55;1.80;;;25.10;35.20;;;;;;5054451;28;20075;-66
2023/05/30 12:10:39;;;;;;;7.65;2.15;;;25.20;35.10;;;;;;5056681;28;20444;-64
2023/05/30 12:13:08;;;;;;;3.95;1.50;;;25.20;35.00;;;;;;5059293;28;20025;-65
2023/05/30 12:15:36;;;;;;;3.40;1.55;;;25.30;34.80;;;;;;5059298;28;20107;-67
2023/05/30 12:18:02;;;;;;;4.53;1.55;;;25.30;34.70;;;;;;5056596;28;20451;-64
2023/05/30 12:20:29;;;;;;;3.55;1.48;;;25.30;34.60;;;;;;5054612;28;20365;-65
2023/05/30 12:22:57;;;;;;;3.33;1.52;;;25.30;34.70;;;;;;5040518;28;20040;-63
2023/05/30 12:25:27;;;;;;;2.95;1.58;;;25.40;34.80;;;;;;5061965;28;20435;-60
2023/05/30 12:27:55;;;;;;;2.08;1.50;;;25.40;34.80;;;;;;5053001;28;20063;-63
2023/05/30 12:30:23;;;;;;;5.00;1.83;;;25.40;34.80;;;;;;5050955;28;20482;-65
2023/05/30 12:32:49;;;;;;;3.55;1.70;;;25.40;34.80;;;;;;5053006;28;21585;-65
2023/05/30 12:35:15;;;;;;;3.38;1.40;;;25.50;34.90;;;;;;5051898;28;20094;-64
2023/05/30 12:37:41;;;;;;;3.40;1.80;;;25.50;34.80;;;;;;5024392;28;20134;-63
2023/05/30 12:40:08;;;;;;;3.90;1.55;;;25.50;34.80;;;;;;5050606;28;20076;-64
2023/05/30 12:42:36;;;;;;;3.40;1.58;;;25.60;34.80;;;;;;5034922;28;20396;-66
2023/05/30 12:45:06;;;;;;;2.70;1.60;;;25.60;34.70;;;;;;5048449;28;20142;-63
2023/05/30 12:47:37;;;;;;;3.20;1.70;;;25.60;34.70;;;;;;5050383;28;20112;-63
2023/05/30 12:50:03;;;;;;;2.83;1.30;;;25.70;34.70;;;;;;5051658;28;20073;-65
2023/05/30 12:52:29;;;;;;;2.67;1.55;;;25.70;34.80;;;;;;5031683;28;20032;-66
2023/05/30 12:54:56;;;;;;;3.63;1.30;;;25.80;34.80;;;;;;5050238;28;20044;-63
2023/05/30 12:57:25;;;;;;;1.63;1.08;;;25.80;34.80;;;;;;5029610;28;20025;-63